Flugplatz Bexbach (EDRX)

Hier findest Du alle Informationen zum Flugplatz Bexbach (EDRX).

Informationen für Piloten zum Flugplatz Bexbach

Hier findest Du alle relevanten Informationen, die Du als Pilot benötigst, um Bexbach anzufliegen.

Flugplatz: Bexbach ICAO-Code: EDRX
Frequenz Turm: 123,05 Mhz GAFOR Gebiet: 44
Frequenz Ground: 123,05 Mhz Mogas: ja
Platzrunde: N 2000 ft Landegebühr: 0 €
Platzhöhe: - Sunrise: 06:10 Uhr UTC
Pisten: 06/24 - 550 m x 30 m, GRAS Sunset: 16:19 Uhr UTC

Flugwetter am Flugplatz Bexbach

Die METAR Information stammen aus EDDR (17.59 km entfernt).

METAR Code:
2020/10/24 07:20
EDDR 240720Z 22011KT 9999 BKN008 BKN012 11/11 Q1017 NOSIG

Temperatur: 9,4 °C Niederschlag: - Wind: 8,9 kt
Temperatur (min.): 9,0 °C Luftdruck: 1009 hPa Windrichtung: 190 °
Temperatur (max.): 9,4 °C Luftfeuchtigkeit: 81 % Bewölkung: -

Flugschulen am Flugplatz Bexbach

Am Flugplatz Bexbach gibt es leider keine Flugschule.

Benachbarte Flugplätze und Flugschulen

Es gibt 14 weitere Flugplätze in einem Umkreis von 50 km um den Flugplatz Bexbach.

Jetzt anmelden

Passwort vergessen

Umfrage Archiv

Wären Rettungsgeräte keine Pflicht mehr, würdet Ihr Euer UL trotzdem mit einem ausstatten?

Ja
86 %
Nein
14 %
Stimmen: 358 | Diskussion
Anzeige: Roland Aircraft
Statistik Alle Mitglieder

Aktuell sind 50 Besucher online, davon 2 Mitglieder und 48 Gäste.


Mitglieder online:
mabe  Maraio 

Anzeige: VFR Sprechfunk Simulator


Anzeige: Pocket FMS